sensor_id;sensor_type;location;lat;lon;timestamp;P1;durP1;ratioP1;P2;durP2;ratioP2
48765;SDS011;65794;51.836;5.002;2024-03-22T00:01:40;54.40;;;21.58;;
48765;SDS011;65794;51.836;5.002;2024-03-22T00:04:06;55.78;;;21.33;;
48765;SDS011;65794;51.836;5.002;2024-03-22T00:06:31;52.67;;;21.77;;
48765;SDS011;65794;51.836;5.002;2024-03-22T00:08:57;55.53;;;22.38;;
48765;SDS011;65794;51.836;5.002;2024-03-22T00:11:23;53.33;;;21.98;;
48765;SDS011;65794;51.836;5.002;2024-03-22T00:13:49;57.65;;;23.63;;
48765;SDS011;65794;51.836;5.002;2024-03-22T00:16:15;54.13;;;22.45;;
48765;SDS011;65794;51.836;5.002;2024-03-22T00:18:40;58.40;;;23.25;;
48765;SDS011;65794;51.836;5.002;2024-03-22T00:21:06;55.67;;;23.20;;
48765;SDS011;65794;51.836;5.002;2024-03-22T00:23:32;60.22;;;22.15;;
48765;SDS011;65794;51.836;5.002;2024-03-22T00:25:58;50.17;;;22.08;;
48765;SDS011;65794;51.836;5.002;2024-03-22T00:28:24;60.08;;;23.48;;
48765;SDS011;65794;51.836;5.002;2024-03-22T00:30:50;55.53;;;21.30;;
48765;SDS011;65794;51.836;5.002;2024-03-22T00:33:16;55.58;;;22.05;;
48765;SDS011;65794;51.836;5.002;2024-03-22T00:35:42;59.17;;;23.10;;
48765;SDS011;65794;51.836;5.002;2024-03-22T00:38:07;59.08;;;22.25;;
48765;SDS011;65794;51.836;5.002;2024-03-22T00:40:33;62.70;;;22.80;;
48765;SDS011;65794;51.836;5.002;2024-03-22T00:42:59;56.75;;;22.60;;
48765;SDS011;65794;51.836;5.002;2024-03-22T00:45:25;54.25;;;22.23;;
48765;SDS011;65794;51.836;5.002;2024-03-22T00:47:51;58.28;;;21.65;;
48765;SDS011;65794;51.836;5.002;2024-03-22T00:50:17;57.92;;;21.83;;
48765;SDS011;65794;51.836;5.002;2024-03-22T00:52:43;59.97;;;22.98;;
48765;SDS011;65794;51.836;5.002;2024-03-22T00:55:09;55.88;;;22.77;;
48765;SDS011;65794;51.836;5.002;2024-03-22T00:57:38;59.58;;;22.42;;
48765;SDS011;65794;51.836;5.002;2024-03-22T01:00:03;56.03;;;21.80;;
48765;SDS011;65794;51.836;5.002;2024-03-22T01:02:30;60.28;;;23.35;;
48765;SDS011;65794;51.836;5.002;2024-03-22T01:04:55;54.35;;;21.88;;
48765;SDS011;65794;51.836;5.002;2024-03-22T01:07:21;57.25;;;23.00;;
48765;SDS011;65794;51.836;5.002;2024-03-22T01:09:47;52.85;;;21.55;;
48765;SDS011;65794;51.836;5.002;2024-03-22T01:12:13;53.40;;;21.05;;
48765;SDS011;65794;51.836;5.002;2024-03-22T01:14:39;59.33;;;22.75;;
48765;SDS011;65794;51.836;5.002;2024-03-22T01:17:05;49.45;;;20.55;;
48765;SDS011;65794;51.836;5.002;2024-03-22T01:19:31;55.55;;;22.45;;
48765;SDS011;65794;51.836;5.002;2024-03-22T01:21:57;51.55;;;21.92;;
48765;SDS011;65794;51.836;5.002;2024-03-22T01:24:23;57.65;;;22.40;;
48765;SDS011;65794;51.836;5.002;2024-03-22T01:26:49;57.88;;;22.67;;
48765;SDS011;65794;51.836;5.002;2024-03-22T01:29:15;53.70;;;21.70;;
48765;SDS011;65794;51.836;5.002;2024-03-22T01:31:41;50.53;;;20.83;;
48765;SDS011;65794;51.836;5.002;2024-03-22T01:34:07;54.25;;;21.77;;
48765;SDS011;65794;51.836;5.002;2024-03-22T01:36:33;46.47;;;20.73;;
48765;SDS011;65794;51.836;5.002;2024-03-22T01:38:59;50.63;;;19.92;;
48765;SDS011;65794;51.836;5.002;2024-03-22T01:41:26;49.30;;;20.00;;
48765;SDS011;65794;51.836;5.002;2024-03-22T01:43:52;42.13;;;18.30;;
48765;SDS011;65794;51.836;5.002;2024-03-22T01:46:18;46.45;;;18.70;;
48765;SDS011;65794;51.836;5.002;2024-03-22T01:48:44;47.42;;;19.48;;
48765;SDS011;65794;51.836;5.002;2024-03-22T01:51:10;47.13;;;19.58;;
48765;SDS011;65794;51.836;5.002;2024-03-22T01:53:36;42.42;;;18.33;;
48765;SDS011;65794;51.836;5.002;2024-03-22T01:56:03;46.22;;;18.65;;
48765;SDS011;65794;51.836;5.002;2024-03-22T01:58:28;45.60;;;19.15;;
48765;SDS011;65794;51.836;5.002;2024-03-22T02:00:55;46.58;;;19.83;;
48765;SDS011;65794;51.836;5.002;2024-03-22T02:03:21;49.20;;;19.75;;
48765;SDS011;65794;51.836;5.002;2024-03-22T02:05:47;50.85;;;21.08;;
48765;SDS011;65794;51.836;5.002;2024-03-22T02:08:16;50.92;;;20.48;;
48765;SDS011;65794;51.836;5.002;2024-03-22T02:10:43;47.75;;;20.38;;
48765;SDS011;65794;51.836;5.002;2024-03-22T02:13:09;47.33;;;20.65;;
48765;SDS011;65794;51.836;5.002;2024-03-22T02:15:35;51.60;;;21.10;;
48765;SDS011;65794;51.836;5.002;2024-03-22T02:18:04;43.53;;;19.35;;
48765;SDS011;65794;51.836;5.002;2024-03-22T02:20:30;46.97;;;19.15;;
48765;SDS011;65794;51.836;5.002;2024-03-22T02:22:56;43.88;;;18.35;;
48765;SDS011;65794;51.836;5.002;2024-03-22T02:25:23;48.20;;;19.58;;
48765;SDS011;65794;51.836;5.002;2024-03-22T02:27:49;45.47;;;18.75;;
48765;SDS011;65794;51.836;5.002;2024-03-22T02:30:16;45.25;;;18.17;;
48765;SDS011;65794;51.836;5.002;2024-03-22T02:32:42;46.03;;;18.05;;
48765;SDS011;65794;51.836;5.002;2024-03-22T02:35:08;43.10;;;17.92;;
48765;SDS011;65794;51.836;5.002;2024-03-22T02:37:34;47.47;;;17.80;;
48765;SDS011;65794;51.836;5.002;2024-03-22T02:40:00;44.33;;;18.38;;
48765;SDS011;65794;51.836;5.002;2024-03-22T02:42:25;48.90;;;19.85;;
48765;SDS011;65794;51.836;5.002;2024-03-22T02:44:52;53.33;;;18.85;;
48765;SDS011;65794;51.836;5.002;2024-03-22T02:47:18;53.78;;;19.10;;
48765;SDS011;65794;51.836;5.002;2024-03-22T02:49:43;48.08;;;18.88;;
48765;SDS011;65794;51.836;5.002;2024-03-22T02:52:09;47.90;;;18.65;;
48765;SDS011;65794;51.836;5.002;2024-03-22T02:54:35;53.70;;;20.13;;
48765;SDS011;65794;51.836;5.002;2024-03-22T02:57:01;45.20;;;19.67;;
48765;SDS011;65794;51.836;5.002;2024-03-22T02:59:27;53.25;;;19.00;;
48765;SDS011;65794;51.836;5.002;2024-03-22T03:01:53;52.55;;;19.92;;
48765;SDS011;65794;51.836;5.002;2024-03-22T03:04:20;55.20;;;18.98;;
48765;SDS011;65794;51.836;5.002;2024-03-22T03:06:48;52.50;;;20.27;;
48765;SDS011;65794;51.836;5.002;2024-03-22T03:09:14;56.00;;;21.30;;
48765;SDS011;65794;51.836;5.002;2024-03-22T03:11:40;52.65;;;20.23;;
48765;SDS011;65794;51.836;5.002;2024-03-22T03:14:06;50.63;;;18.60;;
48765;SDS011;65794;51.836;5.002;2024-03-22T03:16:32;59.08;;;20.33;;
48765;SDS011;65794;51.836;5.002;2024-03-22T03:18:58;54.50;;;20.35;;
48765;SDS011;65794;51.836;5.002;2024-03-22T03:21:24;50.30;;;18.88;;
48765;SDS011;65794;51.836;5.002;2024-03-22T03:23:49;52.35;;;20.20;;
48765;SDS011;65794;51.836;5.002;2024-03-22T03:26:15;52.20;;;20.38;;
48765;SDS011;65794;51.836;5.002;2024-03-22T03:28:44;58.33;;;21.02;;
48765;SDS011;65794;51.836;5.002;2024-03-22T03:31:10;55.88;;;20.85;;
48765;SDS011;65794;51.836;5.002;2024-03-22T03:33:36;59.75;;;22.88;;
48765;SDS011;65794;51.836;5.002;2024-03-22T03:36:02;56.67;;;21.77;;
48765;SDS011;65794;51.836;5.002;2024-03-22T03:38:28;55.38;;;20.77;;
48765;SDS011;65794;51.836;5.002;2024-03-22T03:40:54;58.20;;;21.13;;
48765;SDS011;65794;51.836;5.002;2024-03-22T03:43:20;56.10;;;21.67;;
48765;SDS011;65794;51.836;5.002;2024-03-22T03:45:45;53.15;;;21.65;;
48765;SDS011;65794;51.836;5.002;2024-03-22T03:48:12;56.60;;;22.25;;
48765;SDS011;65794;51.836;5.002;2024-03-22T03:50:38;55.50;;;21.35;;
48765;SDS011;65794;51.836;5.002;2024-03-22T03:53:05;53.70;;;21.10;;
48765;SDS011;65794;51.836;5.002;2024-03-22T03:55:31;58.55;;;22.17;;
48765;SDS011;65794;51.836;5.002;2024-03-22T03:57:57;55.45;;;20.48;;
48765;SDS011;65794;51.836;5.002;2024-03-22T04:00:23;51.67;;;20.88;;
48765;SDS011;65794;51.836;5.002;2024-03-22T04:02:49;62.55;;;22.83;;
48765;SDS011;65794;51.836;5.002;2024-03-22T04:05:16;54.38;;;21.27;;
48765;SDS011;65794;51.836;5.002;2024-03-22T04:07:42;53.13;;;21.60;;
48765;SDS011;65794;51.836;5.002;2024-03-22T04:10:08;53.35;;;21.38;;
48765;SDS011;65794;51.836;5.002;2024-03-22T04:12:34;51.78;;;19.80;;
48765;SDS011;65794;51.836;5.002;2024-03-22T04:15:00;53.05;;;19.23;;
48765;SDS011;65794;51.836;5.002;2024-03-22T04:17:26;56.75;;;21.13;;
48765;SDS011;65794;51.836;5.002;2024-03-22T04:19:53;50.78;;;21.27;;
48765;SDS011;65794;51.836;5.002;2024-03-22T04:22:18;50.30;;;19.65;;
48765;SDS011;65794;51.836;5.002;2024-03-22T04:24:44;48.08;;;19.50;;
48765;SDS011;65794;51.836;5.002;2024-03-22T04:27:10;45.10;;;18.30;;
48765;SDS011;65794;51.836;5.002;2024-03-22T04:29:37;44.10;;;18.20;;
48765;SDS011;65794;51.836;5.002;2024-03-22T04:32:03;46.90;;;19.30;;
48765;SDS011;65794;51.836;5.002;2024-03-22T04:34:29;46.15;;;19.10;;
48765;SDS011;65794;51.836;5.002;2024-03-22T04:36:54;39.88;;;18.58;;
48765;SDS011;65794;51.836;5.002;2024-03-22T04:39:21;47.25;;;18.80;;
48765;SDS011;65794;51.836;5.002;2024-03-22T04:41:48;37.80;;;15.75;;
48765;SDS011;65794;51.836;5.002;2024-03-22T04:44:13;39.65;;;16.75;;
48765;SDS011;65794;51.836;5.002;2024-03-22T04:46:39;38.92;;;16.60;;
48765;SDS011;65794;51.836;5.002;2024-03-22T04:49:05;37.40;;;16.88;;
48765;SDS011;65794;51.836;5.002;2024-03-22T04:51:31;44.30;;;16.60;;
48765;SDS011;65794;51.836;5.002;2024-03-22T04:53:57;35.30;;;15.93;;
48765;SDS011;65794;51.836;5.002;2024-03-22T04:56:22;38.67;;;16.20;;
48765;SDS011;65794;51.836;5.002;2024-03-22T04:58:48;44.30;;;17.23;;
48765;SDS011;65794;51.836;5.002;2024-03-22T05:01:15;36.20;;;15.90;;
48765;SDS011;65794;51.836;5.002;2024-03-22T05:03:41;33.78;;;14.43;;
48765;SDS011;65794;51.836;5.002;2024-03-22T05:06:07;37.88;;;15.93;;
48765;SDS011;65794;51.836;5.002;2024-03-22T05:08:33;33.85;;;14.48;;
48765;SDS011;65794;51.836;5.002;2024-03-22T05:10:58;43.03;;;15.57;;
48765;SDS011;65794;51.836;5.002;2024-03-22T05:13:24;37.63;;;14.88;;
48765;SDS011;65794;51.836;5.002;2024-03-22T05:15:51;36.10;;;15.18;;
48765;SDS011;65794;51.836;5.002;2024-03-22T05:18:16;37.28;;;15.60;;
48765;SDS011;65794;51.836;5.002;2024-03-22T05:20:44;36.15;;;14.07;;
48765;SDS011;65794;51.836;5.002;2024-03-22T05:23:09;37.20;;;14.90;;
48765;SDS011;65794;51.836;5.002;2024-03-22T05:25:35;36.20;;;14.65;;
48765;SDS011;65794;51.836;5.002;2024-03-22T05:28:01;32.30;;;12.50;;
48765;SDS011;65794;51.836;5.002;2024-03-22T05:30:27;36.13;;;13.90;;
48765;SDS011;65794;51.836;5.002;2024-03-22T05:32:53;28.52;;;12.27;;
48765;SDS011;65794;51.836;5.002;2024-03-22T05:35:19;36.72;;;14.32;;
48765;SDS011;65794;51.836;5.002;2024-03-22T05:37:45;30.42;;;13.73;;
48765;SDS011;65794;51.836;5.002;2024-03-22T05:40:11;33.75;;;13.77;;
48765;SDS011;65794;51.836;5.002;2024-03-22T05:42:37;27.95;;;12.38;;
48765;SDS011;65794;51.836;5.002;2024-03-22T05:45:03;34.75;;;14.65;;
48765;SDS011;65794;51.836;5.002;2024-03-22T05:47:29;34.42;;;13.98;;
48765;SDS011;65794;51.836;5.002;2024-03-22T05:49:57;33.15;;;13.20;;
48765;SDS011;65794;51.836;5.002;2024-03-22T05:52:23;40.58;;;13.75;;
48765;SDS011;65794;51.836;5.002;2024-03-22T05:54:49;36.15;;;14.00;;
48765;SDS011;65794;51.836;5.002;2024-03-22T05:57:15;38.67;;;14.60;;
48765;SDS011;65794;51.836;5.002;2024-03-22T05:59:40;34.78;;;14.18;;
48765;SDS011;65794;51.836;5.002;2024-03-22T06:02:06;34.50;;;13.40;;
48765;SDS011;65794;51.836;5.002;2024-03-22T06:04:32;35.40;;;13.52;;
48765;SDS011;65794;51.836;5.002;2024-03-22T06:06:57;40.33;;;14.35;;
48765;SDS011;65794;51.836;5.002;2024-03-22T06:09:28;38.72;;;14.00;;
48765;SDS011;65794;51.836;5.002;2024-03-22T06:12:05;34.25;;;13.82;;
48765;SDS011;65794;51.836;5.002;2024-03-22T06:14:32;31.95;;;12.68;;
48765;SDS011;65794;51.836;5.002;2024-03-22T06:16:57;33.63;;;13.65;;
48765;SDS011;65794;51.836;5.002;2024-03-22T06:19:24;30.83;;;12.30;;
48765;SDS011;65794;51.836;5.002;2024-03-22T06:21:49;38.13;;;13.85;;
48765;SDS011;65794;51.836;5.002;2024-03-22T06:24:15;37.38;;;13.68;;
48765;SDS011;65794;51.836;5.002;2024-03-22T06:26:41;29.95;;;12.20;;
48765;SDS011;65794;51.836;5.002;2024-03-22T06:29:07;31.98;;;12.70;;
48765;SDS011;65794;51.836;5.002;2024-03-22T06:31:33;34.30;;;13.38;;
48765;SDS011;65794;51.836;5.002;2024-03-22T06:33:58;37.55;;;14.50;;
48765;SDS011;65794;51.836;5.002;2024-03-22T06:36:28;32.50;;;11.73;;
48765;SDS011;65794;51.836;5.002;2024-03-22T06:38:54;33.08;;;13.65;;
48765;SDS011;65794;51.836;5.002;2024-03-22T06:41:20;36.33;;;13.25;;
48765;SDS011;65794;51.836;5.002;2024-03-22T06:43:46;34.85;;;13.95;;
48765;SDS011;65794;51.836;5.002;2024-03-22T06:46:12;35.75;;;13.15;;
48765;SDS011;65794;51.836;5.002;2024-03-22T06:48:38;33.10;;;13.15;;
48765;SDS011;65794;51.836;5.002;2024-03-22T06:51:04;38.72;;;13.88;;
48765;SDS011;65794;51.836;5.002;2024-03-22T06:53:29;39.83;;;14.57;;
48765;SDS011;65794;51.836;5.002;2024-03-22T06:55:55;38.50;;;13.98;;
48765;SDS011;65794;51.836;5.002;2024-03-22T06:58:21;43.53;;;14.93;;
48765;SDS011;65794;51.836;5.002;2024-03-22T07:00:47;37.83;;;13.98;;
48765;SDS011;65794;51.836;5.002;2024-03-22T07:03:13;34.78;;;13.98;;
48765;SDS011;65794;51.836;5.002;2024-03-22T07:05:40;38.00;;;15.38;;
48765;SDS011;65794;51.836;5.002;2024-03-22T07:08:05;40.83;;;14.57;;
48765;SDS011;65794;51.836;5.002;2024-03-22T07:10:31;35.05;;;14.73;;
48765;SDS011;65794;51.836;5.002;2024-03-22T07:12:58;41.75;;;15.55;;
48765;SDS011;65794;51.836;5.002;2024-03-22T07:15:23;45.45;;;16.48;;
48765;SDS011;65794;51.836;5.002;2024-03-22T07:17:51;40.30;;;15.23;;
48765;SDS011;65794;51.836;5.002;2024-03-22T07:20:17;49.00;;;16.52;;
48765;SDS011;65794;51.836;5.002;2024-03-22T07:22:44;42.28;;;16.23;;
48765;SDS011;65794;51.836;5.002;2024-03-22T07:25:10;45.42;;;16.00;;
48765;SDS011;65794;51.836;5.002;2024-03-22T07:27:36;45.13;;;16.23;;
48765;SDS011;65794;51.836;5.002;2024-03-22T07:30:02;47.65;;;17.02;;
48765;SDS011;65794;51.836;5.002;2024-03-22T07:32:29;42.78;;;17.05;;
48765;SDS011;65794;51.836;5.002;2024-03-22T07:34:55;44.25;;;17.08;;
48765;SDS011;65794;51.836;5.002;2024-03-22T07:37:21;48.08;;;17.40;;
48765;SDS011;65794;51.836;5.002;2024-03-22T07:39:47;45.38;;;16.67;;
48765;SDS011;65794;51.836;5.002;2024-03-22T07:42:13;43.95;;;16.77;;
48765;SDS011;65794;51.836;5.002;2024-03-22T07:44:38;44.42;;;16.17;;
48765;SDS011;65794;51.836;5.002;2024-03-22T07:47:04;45.95;;;16.85;;
48765;SDS011;65794;51.836;5.002;2024-03-22T07:49:30;46.28;;;18.80;;
48765;SDS011;65794;51.836;5.002;2024-03-22T07:51:57;56.10;;;20.27;;
48765;SDS011;65794;51.836;5.002;2024-03-22T07:54:23;46.80;;;19.50;;
48765;SDS011;65794;51.836;5.002;2024-03-22T07:56:48;41.63;;;16.88;;
48765;SDS011;65794;51.836;5.002;2024-03-22T07:59:14;42.53;;;17.75;;
48765;SDS011;65794;51.836;5.002;2024-03-22T08:01:40;45.10;;;18.80;;
48765;SDS011;65794;51.836;5.002;2024-03-22T08:04:06;46.42;;;18.17;;
48765;SDS011;65794;51.836;5.002;2024-03-22T08:06:32;40.92;;;16.20;;
48765;SDS011;65794;51.836;5.002;2024-03-22T08:08:58;42.67;;;17.13;;
48765;SDS011;65794;51.836;5.002;2024-03-22T08:11:24;43.13;;;17.48;;
48765;SDS011;65794;51.836;5.002;2024-03-22T08:13:49;42.53;;;16.40;;
48765;SDS011;65794;51.836;5.002;2024-03-22T08:16:15;44.10;;;17.42;;
48765;SDS011;65794;51.836;5.002;2024-03-22T08:18:41;40.30;;;16.25;;
48765;SDS011;65794;51.836;5.002;2024-03-22T08:21:07;45.28;;;16.40;;
48765;SDS011;65794;51.836;5.002;2024-03-22T08:23:33;41.80;;;17.35;;
48765;SDS011;65794;51.836;5.002;2024-03-22T08:25:59;38.33;;;15.93;;
48765;SDS011;65794;51.836;5.002;2024-03-22T08:28:25;37.20;;;16.23;;
48765;SDS011;65794;51.836;5.002;2024-03-22T08:30:51;43.33;;;16.15;;
48765;SDS011;65794;51.836;5.002;2024-03-22T08:33:17;41.72;;;15.48;;
48765;SDS011;65794;51.836;5.002;2024-03-22T08:35:43;41.33;;;17.05;;
48765;SDS011;65794;51.836;5.002;2024-03-22T08:38:09;40.28;;;16.02;;
48765;SDS011;65794;51.836;5.002;2024-03-22T08:40:39;35.33;;;15.35;;
48765;SDS011;65794;51.836;5.002;2024-03-22T08:43:05;33.72;;;14.80;;
48765;SDS011;65794;51.836;5.002;2024-03-22T08:45:33;37.40;;;14.68;;
48765;SDS011;65794;51.836;5.002;2024-03-22T08:47:59;37.33;;;15.20;;
48765;SDS011;65794;51.836;5.002;2024-03-22T08:50:25;37.75;;;15.82;;
48765;SDS011;65794;51.836;5.002;2024-03-22T08:52:51;38.88;;;14.98;;
48765;SDS011;65794;51.836;5.002;2024-03-22T08:55:18;35.40;;;14.77;;
48765;SDS011;65794;51.836;5.002;2024-03-22T08:57:46;36.88;;;14.75;;
48765;SDS011;65794;51.836;5.002;2024-03-22T09:00:13;33.63;;;14.57;;
48765;SDS011;65794;51.836;5.002;2024-03-22T09:02:39;37.85;;;14.18;;
48765;SDS011;65794;51.836;5.002;2024-03-22T09:05:05;35.65;;;12.98;;
48765;SDS011;65794;51.836;5.002;2024-03-22T09:07:31;35.38;;;13.73;;
48765;SDS011;65794;51.836;5.002;2024-03-22T09:09:57;34.47;;;13.00;;
48765;SDS011;65794;51.836;5.002;2024-03-22T09:12:26;27.02;;;12.27;;
48765;SDS011;65794;51.836;5.002;2024-03-22T09:14:52;31.67;;;12.32;;
48765;SDS011;65794;51.836;5.002;2024-03-22T09:17:17;32.05;;;13.30;;
48765;SDS011;65794;51.836;5.002;2024-03-22T09:19:43;32.15;;;13.43;;
48765;SDS011;65794;51.836;5.002;2024-03-22T09:22:09;27.88;;;12.57;;
48765;SDS011;65794;51.836;5.002;2024-03-22T09:24:35;30.52;;;12.55;;
48765;SDS011;65794;51.836;5.002;2024-03-22T09:27:01;30.08;;;13.10;;
48765;SDS011;65794;51.836;5.002;2024-03-22T09:29:30;31.40;;;11.98;;
48765;SDS011;65794;51.836;5.002;2024-03-22T09:31:55;28.30;;;11.70;;
48765;SDS011;65794;51.836;5.002;2024-03-22T09:34:22;27.15;;;11.43;;
48765;SDS011;65794;51.836;5.002;2024-03-22T09:36:47;28.45;;;10.98;;
48765;SDS011;65794;51.836;5.002;2024-03-22T09:39:13;30.52;;;11.20;;
48765;SDS011;65794;51.836;5.002;2024-03-22T09:41:42;26.98;;;10.85;;
48765;SDS011;65794;51.836;5.002;2024-03-22T09:44:12;29.80;;;10.80;;
48765;SDS011;65794;51.836;5.002;2024-03-22T09:46:39;23.90;;;11.32;;
48765;SDS011;65794;51.836;5.002;2024-03-22T09:49:06;19.30;;;10.35;;
48765;SDS011;65794;51.836;5.002;2024-03-22T09:51:32;25.92;;;11.02;;
48765;SDS011;65794;51.836;5.002;2024-03-22T09:53:59;22.10;;;10.80;;
48765;SDS011;65794;51.836;5.002;2024-03-22T09:56:25;24.02;;;11.18;;
48765;SDS011;65794;51.836;5.002;2024-03-22T09:58:52;33.63;;;11.73;;
48765;SDS011;65794;51.836;5.002;2024-03-22T10:01:18;34.00;;;11.98;;
48765;SDS011;65794;51.836;5.002;2024-03-22T10:03:44;28.05;;;11.52;;
48765;SDS011;65794;51.836;5.002;2024-03-22T10:06:11;25.08;;;11.35;;
48765;SDS011;65794;51.836;5.002;2024-03-22T10:08:38;33.22;;;11.35;;
48765;SDS011;65794;51.836;5.002;2024-03-22T10:11:03;27.70;;;10.50;;
48765;SDS011;65794;51.836;5.002;2024-03-22T10:13:30;29.27;;;11.38;;
48765;SDS011;65794;51.836;5.002;2024-03-22T10:15:56;22.90;;;9.20;;
48765;SDS011;65794;51.836;5.002;2024-03-22T10:18:24;27.00;;;10.13;;
48765;SDS011;65794;51.836;5.002;2024-03-22T10:20:59;23.60;;;9.00;;
48765;SDS011;65794;51.836;5.002;2024-03-22T10:25:52;17.98;;;9.32;;
48765;SDS011;65794;51.836;5.002;2024-03-22T10:28:27;21.73;;;8.98;;
48765;SDS011;65794;51.836;5.002;2024-03-22T10:30:53;29.27;;;9.93;;
48765;SDS011;65794;51.836;5.002;2024-03-22T10:33:20;20.75;;;8.82;;
48765;SDS011;65794;51.836;5.002;2024-03-22T10:35:50;20.95;;;9.65;;
48765;SDS011;65794;51.836;5.002;2024-03-22T10:38:16;19.95;;;9.45;;
48765;SDS011;65794;51.836;5.002;2024-03-22T10:40:44;19.10;;;9.27;;
48765;SDS011;65794;51.836;5.002;2024-03-22T10:43:15;22.73;;;8.73;;
48765;SDS011;65794;51.836;5.002;2024-03-22T10:45:41;19.90;;;8.38;;
48765;SDS011;65794;51.836;5.002;2024-03-22T10:48:11;15.50;;;8.23;;
48765;SDS011;65794;51.836;5.002;2024-03-22T10:50:41;21.15;;;9.15;;
48765;SDS011;65794;51.836;5.002;2024-03-22T10:53:26;15.35;;;7.95;;
48765;SDS011;65794;51.836;5.002;2024-03-22T10:55:53;22.38;;;8.20;;
48765;SDS011;65794;51.836;5.002;2024-03-22T10:58:22;18.33;;;8.15;;
48765;SDS011;65794;51.836;5.002;2024-03-22T11:00:52;18.25;;;7.55;;
48765;SDS011;65794;51.836;5.002;2024-03-22T11:03:20;17.77;;;8.13;;
48765;SDS011;65794;51.836;5.002;2024-03-22T11:05:49;18.42;;;7.40;;
48765;SDS011;65794;51.836;5.002;2024-03-22T11:08:26;14.50;;;7.28;;
48765;SDS011;65794;51.836;5.002;2024-03-22T11:10:52;16.10;;;7.38;;
48765;SDS011;65794;51.836;5.002;2024-03-22T11:13:20;17.13;;;7.57;;
48765;SDS011;65794;51.836;5.002;2024-03-22T11:15:50;14.38;;;7.25;;
48765;SDS011;65794;51.836;5.002;2024-03-22T11:18:16;18.25;;;7.55;;
48765;SDS011;65794;51.836;5.002;2024-03-22T11:20:42;20.38;;;7.10;;
48765;SDS011;65794;51.836;5.002;2024-03-22T11:23:08;17.10;;;7.10;;
48765;SDS011;65794;51.836;5.002;2024-03-22T11:25:35;16.95;;;7.03;;
48765;SDS011;65794;51.836;5.002;2024-03-22T11:28:01;19.75;;;7.72;;
48765;SDS011;65794;51.836;5.002;2024-03-22T11:30:31;21.40;;;8.30;;
48765;SDS011;65794;51.836;5.002;2024-03-22T11:33:00;20.92;;;8.45;;
48765;SDS011;65794;51.836;5.002;2024-03-22T11:35:26;19.95;;;7.72;;
48765;SDS011;65794;51.836;5.002;2024-03-22T11:37:52;16.92;;;6.88;;
48765;SDS011;65794;51.836;5.002;2024-03-22T11:40:18;13.70;;;7.57;;
48765;SDS011;65794;51.836;5.002;2024-03-22T11:42:47;18.80;;;7.63;;
48765;SDS011;65794;51.836;5.002;2024-03-22T11:45:14;21.73;;;7.90;;
48765;SDS011;65794;51.836;5.002;2024-03-22T11:47:40;22.98;;;7.90;;
48765;SDS011;65794;51.836;5.002;2024-03-22T11:50:06;15.07;;;6.72;;
48765;SDS011;65794;51.836;5.002;2024-03-22T11:52:34;15.07;;;7.40;;
48765;SDS011;65794;51.836;5.002;2024-03-22T11:55:00;13.65;;;7.20;;
48765;SDS011;65794;51.836;5.002;2024-03-22T11:57:29;16.25;;;6.53;;
48765;SDS011;65794;51.836;5.002;2024-03-22T11:59:58;15.13;;;6.82;;
48765;SDS011;65794;51.836;5.002;2024-03-22T12:02:24;13.40;;;6.90;;
48765;SDS011;65794;51.836;5.002;2024-03-22T12:04:50;10.45;;;5.97;;
48765;SDS011;65794;51.836;5.002;2024-03-22T12:07:16;15.95;;;6.32;;
48765;SDS011;65794;51.836;5.002;2024-03-22T12:09:42;10.98;;;6.07;;
48765;SDS011;65794;51.836;5.002;2024-03-22T12:12:09;14.13;;;5.82;;
48765;SDS011;65794;51.836;5.002;2024-03-22T12:14:35;9.48;;;5.55;;
48765;SDS011;65794;51.836;5.002;2024-03-22T12:17:02;8.43;;;4.97;;
48765;SDS011;65794;51.836;5.002;2024-03-22T12:19:28;11.20;;;5.55;;
48765;SDS011;65794;51.836;5.002;2024-03-22T12:21:54;10.68;;;5.68;;
48765;SDS011;65794;51.836;5.002;2024-03-22T12:24:20;10.23;;;5.82;;
48765;SDS011;65794;51.836;5.002;2024-03-22T12:26:46;16.38;;;6.50;;
48765;SDS011;65794;51.836;5.002;2024-03-22T12:29:17;12.77;;;7.10;;
48765;SDS011;65794;51.836;5.002;2024-03-22T12:31:44;12.93;;;7.53;;
48765;SDS011;65794;51.836;5.002;2024-03-22T12:34:10;11.13;;;7.30;;
48765;SDS011;65794;51.836;5.002;2024-03-22T12:36:35;15.95;;;7.70;;
48765;SDS011;65794;51.836;5.002;2024-03-22T12:39:02;16.52;;;8.60;;
48765;SDS011;65794;51.836;5.002;2024-03-22T12:41:28;15.55;;;8.75;;
48765;SDS011;65794;51.836;5.002;2024-03-22T12:43:55;14.85;;;8.32;;
48765;SDS011;65794;51.836;5.002;2024-03-22T12:46:21;15.63;;;8.68;;
48765;SDS011;65794;51.836;5.002;2024-03-22T12:48:47;13.05;;;7.55;;
48765;SDS011;65794;51.836;5.002;2024-03-22T12:51:13;15.27;;;8.68;;
48765;SDS011;65794;51.836;5.002;2024-03-22T12:53:40;16.10;;;9.38;;
48765;SDS011;65794;51.836;5.002;2024-03-22T12:56:06;16.75;;;8.55;;
48765;SDS011;65794;51.836;5.002;2024-03-22T12:58:31;18.08;;;8.65;;
48765;SDS011;65794;51.836;5.002;2024-03-22T13:00:57;16.30;;;8.18;;
48765;SDS011;65794;51.836;5.002;2024-03-22T13:03:25;18.40;;;9.32;;
48765;SDS011;65794;51.836;5.002;2024-03-22T13:05:51;16.83;;;8.65;;
48765;SDS011;65794;51.836;5.002;2024-03-22T13:08:17;16.70;;;9.57;;
48765;SDS011;65794;51.836;5.002;2024-03-22T13:10:42;16.58;;;9.77;;
48765;SDS011;65794;51.836;5.002;2024-03-22T13:13:10;17.92;;;9.88;;
48765;SDS011;65794;51.836;5.002;2024-03-22T13:15:36;18.88;;;9.93;;
48765;SDS011;65794;51.836;5.002;2024-03-22T13:18:05;15.35;;;9.88;;
48765;SDS011;65794;51.836;5.002;2024-03-22T13:20:31;16.92;;;8.95;;
48765;SDS011;65794;51.836;5.002;2024-03-22T13:22:56;20.77;;;9.93;;
48765;SDS011;65794;51.836;5.002;2024-03-22T13:25:22;18.38;;;9.85;;
48765;SDS011;65794;51.836;5.002;2024-03-22T13:27:48;24.90;;;10.98;;
48765;SDS011;65794;51.836;5.002;2024-03-22T13:30:14;23.02;;;10.77;;
48765;SDS011;65794;51.836;5.002;2024-03-22T13:32:41;21.38;;;11.30;;
48765;SDS011;65794;51.836;5.002;2024-03-22T13:35:06;20.83;;;10.85;;
48765;SDS011;65794;51.836;5.002;2024-03-22T13:37:32;21.50;;;10.65;;
48765;SDS011;65794;51.836;5.002;2024-03-22T13:39:58;22.25;;;11.20;;
48765;SDS011;65794;51.836;5.002;2024-03-22T13:42:25;22.25;;;11.90;;
48765;SDS011;65794;51.836;5.002;2024-03-22T13:44:51;26.05;;;11.73;;
48765;SDS011;65794;51.836;5.002;2024-03-22T13:47:16;26.05;;;12.60;;
48765;SDS011;65794;51.836;5.002;2024-03-22T13:49:43;22.55;;;11.90;;
48765;SDS011;65794;51.836;5.002;2024-03-22T13:52:10;24.38;;;10.88;;
48765;SDS011;65794;51.836;5.002;2024-03-22T13:54:36;21.13;;;10.48;;
48765;SDS011;65794;51.836;5.002;2024-03-22T13:57:02;22.13;;;11.05;;
48765;SDS011;65794;51.836;5.002;2024-03-22T13:59:28;21.58;;;10.93;;
48765;SDS011;65794;51.836;5.002;2024-03-22T14:01:53;23.92;;;11.10;;
48765;SDS011;65794;51.836;5.002;2024-03-22T14:04:19;21.52;;;10.52;;
48765;SDS011;65794;51.836;5.002;2024-03-22T14:06:45;16.85;;;9.50;;
48765;SDS011;65794;51.836;5.002;2024-03-22T14:09:11;20.67;;;9.82;;
48765;SDS011;65794;51.836;5.002;2024-03-22T14:11:39;24.02;;;9.40;;
48765;SDS011;65794;51.836;5.002;2024-03-22T14:14:05;17.00;;;8.00;;
48765;SDS011;65794;51.836;5.002;2024-03-22T14:16:31;10.45;;;5.68;;
48765;SDS011;65794;51.836;5.002;2024-03-22T14:18:56;16.85;;;6.70;;
48765;SDS011;65794;51.836;5.002;2024-03-22T14:21:23;31.58;;;14.20;;